Teutopolis, Illinois
Current Conditions -  °F | °C
As of 7:55 PM on Friday 21 Nov 2014 (Local Time) from K1H2 Reporting Station
Overcast Overcast  
Wind Chill: 31°   Ceiling: 2900
Heat Index: 37°   Visibility: NA
Dew Point: 16°   Wind: 8mph
Humidity: 43%   Direction: 140°SE
Pressure: 30.33"   Gusts: NA
Location:  39.13°N, 88.47°W
Report Text: K1H2 220155Z AUTO 14007KT BKN029 OVC035 03/M09 A3033 RMK AO2 T00261089 PWINO
Loading
Personal Weather Stations






























Interactive Weather Map New forecast layout! Learn more

10-Day Weather Forecast

Advertisements
Track Severe Weather on mobile